Terminal Aerodrome Forecast
Issued by NWS Atlanta, GA

Home | Current Version | Previous Version | Text Only | Print | Product List | Glossary On
Versions: 1 2 3 4 5 6 7 8 9 10 11 12 13 14 15
000
FTUS42 KFFC 101700
TAFMCN
TAF
KMCN 101720Z 1018/1118 24004KT P6SM VCSH SCT035
      TEMPO 1018/1022 5SM TSRA BR BKN035CB
     FM110000 VRB03KT P6SM SCT060
     FM110800 00000KT 5SM BR SCT008
     FM111300 12004KT P6SM SCT015=

USA.gov is the U.S. government's official web portal to all federal, state and local government web resources and services.